Time;durP1;ratioP1;P1;durP2;ratioP2;P2;SDS_P1;SDS_P2;PMS_P1;PMS_P2;Temp;Humidity;BMP_temperature;BMP_pressure;BME280_temperature;BME280_humidity;BME280_pressure;Samples;Min_cycle;Max_cycle;Signal;HPM_P1;HPM_P2
2023/04/28 00:00:10;;;;;;;12.38;8.10;;;8.40;99.90;;;;;;5093368;28;20122;-64
2023/04/28 00:02:37;;;;;;;14.88;8.40;;;8.40;99.90;;;;;;5093112;28;20079;-64
2023/04/28 00:05:04;;;;;;;11.45;7.10;;;8.40;99.90;;;;;;5075156;28;20087;-64
2023/04/28 00:07:30;;;;;;;10.60;7.30;;;8.30;99.90;;;;;;5110854;28;20074;-64
2023/04/28 00:09:56;;;;;;;14.18;8.65;;;8.30;99.90;;;;;;5110743;28;20094;-65
2023/04/28 00:12:22;;;;;;;12.95;8.20;;;8.30;99.90;;;;;;5110820;28;20094;-65
2023/04/28 00:14:49;;;;;;;14.52;9.95;;;8.30;99.90;;;;;;5091889;28;20379;-64
2023/04/28 00:17:16;;;;;;;14.20;9.02;;;8.20;99.90;;;;;;5075487;28;20130;-64
2023/04/28 00:19:42;;;;;;;18.30;9.77;;;8.20;99.90;;;;;;5092821;28;20051;-63
2023/04/28 00:22:08;;;;;;;12.02;8.80;;;8.20;99.90;;;;;;5110739;28;20150;-64
2023/04/28 00:24:35;;;;;;;11.00;8.88;;;8.20;99.90;;;;;;5109967;28;20128;-63
2023/04/28 00:27:02;;;;;;;12.90;8.52;;;8.10;99.90;;;;;;5075402;28;20113;-64
2023/04/28 00:29:28;;;;;;;13.32;8.70;;;8.20;99.90;;;;;;5110702;28;20078;-64
2023/04/28 00:31:55;;;;;;;13.43;8.90;;;8.10;99.90;;;;;;5110606;28;20151;-64
2023/04/28 00:34:21;;;;;;;15.00;9.52;;;8.10;99.90;;;;;;5091373;28;20134;-64
2023/04/28 00:36:47;;;;;;;14.73;9.10;;;8.10;99.90;;;;;;5091927;28;20083;-64
2023/04/28 00:39:17;;;;;;;11.75;8.90;;;8.10;99.90;;;;;;5110311;28;20043;-64
2023/04/28 00:41:43;;;;;;;13.05;9.77;;;8.00;99.90;;;;;;5110287;28;20118;-64
2023/04/28 00:44:09;;;;;;;15.40;9.00;;;8.00;99.90;;;;;;5110289;28;20047;-64
2023/04/28 00:46:35;;;;;;;12.25;9.13;;;8.00;99.90;;;;;;5091788;28;20110;-64
2023/04/28 00:49:03;;;;;;;12.05;8.85;;;8.00;99.90;;;;;;5110192;28;20087;-64
2023/04/28 00:51:29;;;;;;;10.85;8.00;;;8.00;99.90;;;;;;5091936;28;20051;-64
2023/04/28 00:53:56;;;;;;;13.40;9.73;;;7.90;99.90;;;;;;5110012;28;20139;-64
2023/04/28 00:56:23;;;;;;;14.10;9.13;;;7.90;99.90;;;;;;5109566;28;20143;-64
2023/04/28 00:58:49;;;;;;;15.25;10.23;;;7.90;99.90;;;;;;5092568;28;20075;-64
2023/04/28 01:01:15;;;;;;;14.93;9.13;;;7.90;99.90;;;;;;5110338;28;20077;-64
2023/04/28 01:03:42;;;;;;;14.50;9.73;;;7.80;99.90;;;;;;5092343;28;20440;-63
2023/04/28 01:06:09;;;;;;;12.68;9.02;;;7.90;99.90;;;;;;5091269;28;20139;-63
2023/04/28 01:08:37;;;;;;;12.35;8.25;;;7.80;99.90;;;;;;5110299;28;20116;-64
2023/04/28 01:11:03;;;;;;;13.25;8.25;;;7.80;99.90;;;;;;5110373;28;20140;-65
2023/04/28 01:13:30;;;;;;;11.75;9.10;;;7.80;99.90;;;;;;5110045;28;20086;-64
2023/04/28 01:15:56;;;;;;;12.70;9.02;;;7.80;99.90;;;;;;5109163;28;20094;-64
2023/04/28 01:18:24;;;;;;;12.57;9.23;;;7.70;99.90;;;;;;5092115;28;20109;-64
2023/04/28 01:20:50;;;;;;;15.70;9.63;;;7.80;99.90;;;;;;5109954;28;20059;-64
2023/04/28 01:23:17;;;;;;;14.32;8.95;;;7.80;99.90;;;;;;5092561;28;20079;-64
2023/04/28 01:25:43;;;;;;;12.48;9.02;;;7.80;99.90;;;;;;5109456;28;20060;-64
2023/04/28 01:28:10;;;;;;;14.55;9.55;;;7.70;99.90;;;;;;5110664;28;20135;-64
2023/04/28 01:30:37;;;;;;;13.25;9.20;;;7.70;99.90;;;;;;5092075;28;20539;-64
2023/04/28 01:33:03;;;;;;;12.93;8.02;;;7.70;99.90;;;;;;5109924;28;20052;-64
2023/04/28 01:35:30;;;;;;;14.50;9.27;;;7.70;99.90;;;;;;5109182;28;20039;-63
2023/04/28 01:37:56;;;;;;;12.60;8.60;;;7.70;99.90;;;;;;5110167;28;20079;-63
2023/04/28 01:40:22;;;;;;;11.95;8.95;;;7.60;99.90;;;;;;5109960;28;20049;-64
2023/04/28 01:42:48;;;;;;;12.45;8.48;;;7.60;99.90;;;;;;5091657;28;20052;-64
2023/04/28 01:45:16;;;;;;;10.93;8.25;;;7.60;99.90;;;;;;5108926;28;20139;-64
2023/04/28 01:47:42;;;;;;;12.10;8.57;;;7.60;99.90;;;;;;5113456;28;20043;-63
2023/04/28 01:50:09;;;;;;;12.63;9.15;;;7.60;99.90;;;;;;5095429;28;20083;-64
2023/04/28 01:52:35;;;;;;;13.38;9.68;;;7.60;99.90;;;;;;5113379;28;20054;-64
2023/04/28 01:55:02;;;;;;;12.13;8.60;;;7.60;99.90;;;;;;5112646;28;20062;-64
2023/04/28 01:57:28;;;;;;;11.93;8.23;;;7.60;99.90;;;;;;5113371;28;20251;-64
2023/04/28 01:59:54;;;;;;;11.50;9.18;;;7.50;99.90;;;;;;5095128;28;20389;-63
2023/04/28 02:02:21;;;;;;;12.65;7.85;;;7.50;99.90;;;;;;5112887;28;20044;-64
2023/04/28 02:04:47;;;;;;;10.35;8.65;;;7.50;99.90;;;;;;5112428;28;20047;-64
2023/04/28 02:07:13;;;;;;;11.65;8.43;;;7.40;99.90;;;;;;5095201;28;20149;-63
2023/04/28 02:09:40;;;;;;;14.07;8.70;;;7.40;99.90;;;;;;5113156;28;20197;-64
2023/04/28 02:12:07;;;;;;;12.77;8.60;;;7.40;99.90;;;;;;5113220;28;20090;-64
2023/04/28 02:14:33;;;;;;;12.05;7.90;;;7.40;99.90;;;;;;5094595;28;20048;-64
2023/04/28 02:17:01;;;;;;;11.85;8.90;;;7.30;99.90;;;;;;5113160;28;20297;-64
2023/04/28 02:19:28;;;;;;;13.60;8.90;;;7.30;99.90;;;;;;5113156;28;20134;-65
2023/04/28 02:21:54;;;;;;;13.27;9.27;;;7.30;99.90;;;;;;5112848;28;20122;-65
2023/04/28 02:24:20;;;;;;;12.40;7.65;;;7.40;99.90;;;;;;5093838;28;20047;-64
2023/04/28 02:26:47;;;;;;;13.52;7.95;;;7.30;99.90;;;;;;5094237;28;20113;-64
2023/04/28 02:29:13;;;;;;;10.65;9.00;;;7.40;99.90;;;;;;5094520;28;20118;-65
2023/04/28 02:31:39;;;;;;;16.13;8.82;;;7.40;99.90;;;;;;5112837;28;20051;-65
2023/04/28 02:34:05;;;;;;;12.23;7.97;;;7.40;99.90;;;;;;5077449;28;20056;-65
2023/04/28 02:36:32;;;;;;;12.32;7.75;;;7.40;99.90;;;;;;5093707;28;20055;-65
2023/04/28 02:38:58;;;;;;;13.20;8.98;;;7.50;99.90;;;;;;5094382;28;20439;-65
2023/04/28 02:41:25;;;;;;;11.68;8.77;;;7.50;99.90;;;;;;5094538;28;20044;-65
2023/04/28 02:43:51;;;;;;;12.40;8.57;;;7.50;99.90;;;;;;5112410;28;20086;-65
2023/04/28 02:46:17;;;;;;;10.23;7.95;;;7.40;99.90;;;;;;5111732;28;20044;-65
2023/04/28 02:48:44;;;;;;;11.10;8.20;;;7.40;99.90;;;;;;5094033;28;20139;-64
2023/04/28 02:51:10;;;;;;;13.05;7.95;;;7.40;99.90;;;;;;5112536;28;20086;-64
2023/04/28 02:53:36;;;;;;;13.30;8.50;;;7.50;99.90;;;;;;5112371;28;20637;-65
2023/04/28 02:56:03;;;;;;;11.93;8.43;;;7.40;99.90;;;;;;5092884;28;20094;-65
2023/04/28 02:58:29;;;;;;;12.45;9.45;;;7.40;99.90;;;;;;5111782;28;20119;-64
2023/04/28 03:00:56;;;;;;;14.88;9.63;;;7.50;99.90;;;;;;5111896;28;20479;-64
2023/04/28 03:03:22;;;;;;;11.32;8.23;;;7.40;99.90;;;;;;5112107;28;20056;-65
2023/04/28 03:05:48;;;;;;;11.18;7.80;;;7.40;99.90;;;;;;5111195;28;20435;-64
2023/04/28 03:08:14;;;;;;;13.25;9.85;;;7.40;99.90;;;;;;5112357;28;20043;-65
2023/04/28 03:10:40;;;;;;;14.15;9.18;;;7.50;99.90;;;;;;5093790;28;20317;-64
2023/04/28 03:13:07;;;;;;;12.35;8.68;;;7.50;99.90;;;;;;5112001;28;20106;-64
2023/04/28 03:15:33;;;;;;;13.48;8.50;;;7.40;99.90;;;;;;5111221;28;20090;-65
2023/04/28 03:18:00;;;;;;;11.23;8.90;;;7.40;99.90;;;;;;5111865;28;20450;-65
2023/04/28 03:20:26;;;;;;;13.00;8.90;;;7.50;99.90;;;;;;5093571;28;20206;-65
2023/04/28 03:22:52;;;;;;;11.07;7.88;;;7.40;99.90;;;;;;5111858;28;20079;-64
2023/04/28 03:25:18;;;;;;;12.60;9.13;;;7.40;99.90;;;;;;5110494;28;20436;-65
2023/04/28 03:27:45;;;;;;;13.80;8.70;;;7.40;99.90;;;;;;5093250;28;20075;-65
2023/04/28 03:30:11;;;;;;;14.07;9.23;;;7.40;99.90;;;;;;5093726;28;20056;-65
2023/04/28 03:32:37;;;;;;;11.90;9.15;;;7.40;99.90;;;;;;5093423;28;20070;-65
2023/04/28 03:35:04;;;;;;;12.98;9.35;;;7.40;99.90;;;;;;5092459;28;20122;-65
2023/04/28 03:37:30;;;;;;;12.95;8.45;;;7.40;99.90;;;;;;5093045;28;20046;-65
2023/04/28 03:39:56;;;;;;;13.88;10.38;;;7.30;99.90;;;;;;5093307;28;20119;-65
2023/04/28 03:42:23;;;;;;;14.02;9.75;;;7.40;99.90;;;;;;5093458;28;20067;-65
2023/04/28 03:44:49;;;;;;;11.82;8.05;;;7.30;99.90;;;;;;5075607;28;20472;-65
2023/04/28 03:47:15;;;;;;;11.52;8.10;;;7.30;99.90;;;;;;5076061;28;20057;-64
2023/04/28 03:49:41;;;;;;;13.45;8.50;;;7.30;99.90;;;;;;5093371;28;20464;-65
2023/04/28 03:52:08;;;;;;;13.40;9.10;;;7.30;99.90;;;;;;5092937;28;20054;-65
2023/04/28 03:54:34;;;;;;;14.27;9.45;;;7.30;99.90;;;;;;5092451;28;20353;-65
2023/04/28 03:57:00;;;;;;;13.43;9.57;;;7.30;99.90;;;;;;5093005;28;20142;-65
2023/04/28 03:59:27;;;;;;;13.38;8.52;;;7.30;99.90;;;;;;5093091;28;20471;-65
2023/04/28 04:01:53;;;;;;;14.60;9.00;;;7.30;99.90;;;;;;5092576;28;20456;-65
2023/04/28 04:04:19;;;;;;;13.50;9.63;;;7.30;99.90;;;;;;5092152;28;20079;-65
2023/04/28 04:06:46;;;;;;;14.35;9.68;;;7.30;99.90;;;;;;5092350;28;20153;-65
2023/04/28 04:09:12;;;;;;;12.85;9.75;;;7.30;99.90;;;;;;5110508;28;20075;-66
2023/04/28 04:11:38;;;;;;;13.95;8.82;;;7.30;99.90;;;;;;5092858;28;20044;-65
2023/04/28 04:14:05;;;;;;;14.20;10.00;;;7.30;99.90;;;;;;5092677;28;20051;-65
2023/04/28 04:16:31;;;;;;;11.95;8.95;;;7.30;99.90;;;;;;5092244;28;20694;-64
2023/04/28 04:18:57;;;;;;;13.90;9.38;;;7.30;99.90;;;;;;5092692;28;20444;-65
2023/04/28 04:21:23;;;;;;;15.43;9.80;;;7.30;99.90;;;;;;5092337;28;20050;-65
2023/04/28 04:23:50;;;;;;;13.32;8.95;;;7.30;99.90;;;;;;5092384;28;20162;-65
2023/04/28 04:26:16;;;;;;;12.88;9.75;;;7.30;99.90;;;;;;5074915;28;20090;-66
2023/04/28 04:28:43;;;;;;;16.05;9.55;;;7.30;99.90;;;;;;5092583;28;20130;-65
2023/04/28 04:31:10;;;;;;;15.15;10.60;;;7.30;99.90;;;;;;5092316;28;20063;-64
2023/04/28 04:33:36;;;;;;;14.25;9.25;;;7.30;99.90;;;;;;5092518;28;20083;-66
2023/04/28 04:36:03;;;;;;;15.98;9.77;;;7.30;99.90;;;;;;5091272;28;20051;-65
2023/04/28 04:38:30;;;;;;;12.38;8.57;;;7.20;99.90;;;;;;5092337;28;20138;-65
2023/04/28 04:40:56;;;;;;;15.70;9.70;;;7.30;99.90;;;;;;5075265;28;20132;-65
2023/04/28 04:43:22;;;;;;;14.55;9.23;;;7.30;99.90;;;;;;5092181;28;20048;-65
2023/04/28 04:45:48;;;;;;;13.48;8.98;;;7.30;99.90;;;;;;5091194;28;20083;-65
2023/04/28 04:48:15;;;;;;;15.48;9.32;;;7.30;99.90;;;;;;5092539;28;20138;-65
2023/04/28 04:50:42;;;;;;;13.13;10.82;;;7.40;99.90;;;;;;5092910;28;20156;-65
2023/04/28 04:53:09;;;;;;;13.75;9.23;;;7.40;99.90;;;;;;5092949;28;20117;-65
2023/04/28 04:55:35;;;;;;;14.30;10.23;;;7.40;99.90;;;;;;5075129;28;20126;-65
2023/04/28 04:58:01;;;;;;;12.00;8.82;;;7.40;99.90;;;;;;5092503;28;20090;-65
2023/04/28 05:00:28;;;;;;;13.10;8.93;;;7.40;99.90;;;;;;5076119;28;20468;-65
2023/04/28 05:02:54;;;;;;;14.93;10.63;;;7.40;99.90;;;;;;5075832;28;20352;-64
2023/04/28 05:05:21;;;;;;;13.82;9.55;;;7.40;99.90;;;;;;5075146;28;20477;-65
2023/04/28 05:07:47;;;;;;;13.35;9.48;;;7.40;99.90;;;;;;5092274;28;20043;-65
2023/04/28 05:10:13;;;;;;;14.93;9.35;;;7.40;99.90;;;;;;5091953;28;20086;-65
2023/04/28 05:12:39;;;;;;;12.88;9.35;;;7.40;99.90;;;;;;5092324;28;20055;-65
2023/04/28 05:15:06;;;;;;;13.98;9.77;;;7.40;99.90;;;;;;5091896;28;20075;-65
2023/04/28 05:17:33;;;;;;;14.57;9.60;;;7.40;99.90;;;;;;5091651;28;20051;-65
2023/04/28 05:19:59;;;;;;;14.45;9.07;;;7.50;99.90;;;;;;5093323;28;20090;-65
2023/04/28 05:22:26;;;;;;;14.80;10.13;;;7.50;99.90;;;;;;5096004;28;20109;-65
2023/04/28 05:24:52;;;;;;;10.73;8.27;;;7.50;99.90;;;;;;5095746;28;20097;-65
2023/04/28 05:27:18;;;;;;;14.30;9.18;;;7.60;99.90;;;;;;5096188;28;20097;-65
2023/04/28 05:29:44;;;;;;;12.82;9.32;;;7.60;99.90;;;;;;5096023;28;20130;-65
2023/04/28 05:32:11;;;;;;;12.30;9.05;;;7.60;99.90;;;;;;5095480;28;20047;-65
2023/04/28 05:34:37;;;;;;;12.75;8.55;;;7.70;99.90;;;;;;5095087;28;20051;-65
2023/04/28 05:37:03;;;;;;;14.18;8.60;;;7.70;99.90;;;;;;5095733;28;20071;-65
2023/04/28 05:39:30;;;;;;;15.23;8.50;;;7.70;99.90;;;;;;5096213;28;20157;-65
2023/04/28 05:41:57;;;;;;;12.40;9.23;;;7.70;99.90;;;;;;5096203;28;20122;-66
2023/04/28 05:44:24;;;;;;;13.63;9.63;;;7.70;99.90;;;;;;5096102;28;20447;-65
2023/04/28 05:46:50;;;;;;;12.30;8.40;;;7.80;99.90;;;;;;5095270;28;20052;-65
2023/04/28 05:49:16;;;;;;;12.60;8.80;;;7.80;99.90;;;;;;5095846;28;20470;-65
2023/04/28 05:51:43;;;;;;;14.65;9.27;;;7.80;99.90;;;;;;5095399;28;20089;-65
2023/04/28 05:54:09;;;;;;;12.13;8.38;;;7.80;99.90;;;;;;5095857;28;20139;-65
2023/04/28 05:56:36;;;;;;;11.93;8.88;;;7.90;99.90;;;;;;5078265;28;20100;-64
2023/04/28 05:59:03;;;;;;;13.77;8.65;;;7.90;99.90;;;;;;5103941;27;20059;-65
2023/04/28 06:01:30;;;;;;;12.63;8.48;;;8.00;99.90;;;;;;5102591;27;20488;-65
2023/04/28 06:03:57;;;;;;;11.27;8.23;;;8.00;99.90;;;;;;5102741;27;20078;-65
2023/04/28 06:06:24;;;;;;;12.75;7.78;;;8.00;99.90;;;;;;5101923;27;20272;-65
2023/04/28 06:08:51;;;;;;;11.60;8.52;;;8.10;99.90;;;;;;5104680;27;20443;-65
2023/04/28 06:11:21;;;;;;;12.20;7.75;;;8.10;99.90;;;;;;5104752;27;20109;-65
2023/04/28 06:13:50;;;;;;;13.95;8.68;;;8.10;99.90;;;;;;5102341;27;20048;-65
2023/04/28 06:16:17;;;;;;;13.02;8.23;;;8.00;99.90;;;;;;5100326;27;20377;-65
2023/04/28 06:18:44;;;;;;;11.23;8.25;;;8.00;99.90;;;;;;5102987;27;20039;-65
2023/04/28 06:21:10;;;;;;;12.70;10.45;;;8.00;99.90;;;;;;5087143;27;20409;-65
2023/04/28 06:23:39;;;;;;;14.15;9.45;;;8.00;99.90;;;;;;5106670;27;20111;-65
2023/04/28 06:26:05;;;;;;;12.57;8.57;;;8.00;99.90;;;;;;5081973;27;20043;-65
2023/04/28 06:28:32;;;;;;;11.10;8.00;;;8.10;99.90;;;;;;5094842;28;20566;-65
2023/04/28 06:31:04;;;;;;;11.75;9.13;;;8.10;99.90;;;;;;5094078;28;20177;-65
2023/04/28 06:33:30;;;;;;;11.00;7.93;;;8.20;99.90;;;;;;5094181;28;20098;-65
2023/04/28 06:35:57;;;;;;;12.38;7.90;;;8.20;99.90;;;;;;5093731;28;20083;-65
2023/04/28 06:38:23;;;;;;;12.40;8.80;;;8.30;99.90;;;;;;5112413;28;20094;-65
2023/04/28 06:40:49;;;;;;;11.68;8.55;;;8.40;99.90;;;;;;5112970;28;20255;-65
2023/04/28 06:43:15;;;;;;;12.35;8.25;;;8.40;99.90;;;;;;5112745;28;20071;-64
2023/04/28 06:45:42;;;;;;;11.27;7.63;;;8.50;99.90;;;;;;5111597;28;20079;-65
2023/04/28 06:48:08;;;;;;;12.57;8.43;;;8.60;99.90;;;;;;5094382;28;20051;-65
2023/04/28 06:50:36;;;;;;;12.57;8.13;;;8.60;99.90;;;;;;5111789;28;20094;-65
2023/04/28 06:53:02;;;;;;;14.13;8.57;;;8.60;99.90;;;;;;5112150;28;20044;-65
2023/04/28 06:55:28;;;;;;;11.25;8.82;;;8.60;99.90;;;;;;5092803;28;20127;-65
2023/04/28 06:57:55;;;;;;;9.40;7.72;;;8.70;99.90;;;;;;5111716;28;20058;-65
2023/04/28 07:00:21;;;;;;;11.32;8.27;;;8.70;99.90;;;;;;5110888;28;20525;-66
2023/04/28 07:02:47;;;;;;;11.10;7.47;;;8.70;99.90;;;;;;5111183;28;20048;-65
2023/04/28 07:05:14;;;;;;;10.45;8.32;;;8.80;99.90;;;;;;5092798;28;20067;-65
2023/04/28 07:07:40;;;;;;;12.85;8.50;;;8.80;99.90;;;;;;5093099;28;20102;-65
2023/04/28 07:10:06;;;;;;;12.75;8.57;;;8.80;99.90;;;;;;5093443;28;20242;-65
2023/04/28 07:12:33;;;;;;;12.85;9.18;;;8.90;99.90;;;;;;5093352;28;20313;-65
2023/04/28 07:15:05;;;;;;;10.25;7.97;;;8.90;99.90;;;;;;5092870;28;20138;-64
2023/04/28 07:17:31;;;;;;;11.73;8.00;;;9.00;99.90;;;;;;5090689;28;20546;-66
2023/04/28 07:19:57;;;;;;;12.38;9.15;;;9.20;99.90;;;;;;5111487;28;20071;-64
2023/04/28 07:22:24;;;;;;;11.45;7.82;;;9.30;99.90;;;;;;5111814;28;20132;-64
2023/04/28 07:24:51;;;;;;;12.80;8.15;;;9.40;99.90;;;;;;5110331;28;20486;-64
2023/04/28 07:27:18;;;;;;;11.27;8.13;;;9.40;99.90;;;;;;5111267;28;20127;-66
2023/04/28 07:29:44;;;;;;;12.93;8.02;;;9.50;99.90;;;;;;5093105;28;20052;-65
2023/04/28 07:32:10;;;;;;;11.43;7.95;;;9.60;99.90;;;;;;5090362;28;20083;-65
2023/04/28 07:34:37;;;;;;;10.93;7.88;;;9.50;99.90;;;;;;5110944;28;20097;-65
2023/04/28 07:37:03;;;;;;;10.32;8.63;;;9.50;99.90;;;;;;5087557;28;20444;-65
2023/04/28 07:39:30;;;;;;;12.27;7.78;;;9.40;99.90;;;;;;5111257;28;20503;-65
2023/04/28 07:41:57;;;;;;;13.15;8.68;;;9.50;99.90;;;;;;5093041;28;20082;-65
2023/04/28 07:44:24;;;;;;;11.50;8.25;;;9.60;99.90;;;;;;5091587;28;20078;-65
2023/04/28 07:46:50;;;;;;;13.80;9.10;;;9.70;99.90;;;;;;5075383;28;20419;-65
2023/04/28 07:49:20;;;;;;;10.68;8.95;;;9.80;99.90;;;;;;5092345;28;20047;-65
2023/04/28 07:51:46;;;;;;;12.15;8.32;;;9.90;99.90;;;;;;5092965;28;20075;-65
2023/04/28 07:54:18;;;;;;;10.68;8.15;;;9.90;99.90;;;;;;5092447;28;20051;-65
2023/04/28 07:56:45;;;;;;;12.23;8.00;;;10.00;99.90;;;;;;5092598;28;20348;-65
2023/04/28 07:59:12;;;;;;;10.77;7.75;;;10.10;99.90;;;;;;5093406;28;20090;-65
2023/04/28 08:01:38;;;;;;;11.45;7.95;;;10.10;99.90;;;;;;5093621;28;20416;-64
2023/04/28 08:04:04;;;;;;;11.90;8.10;;;10.20;99.90;;;;;;5091907;28;20066;-64
2023/04/28 08:06:32;;;;;;;9.93;8.25;;;10.30;99.90;;;;;;5091686;28;20051;-65
2023/04/28 08:09:00;;;;;;;9.82;7.75;;;10.30;99.90;;;;;;5072631;28;20139;-65
2023/04/28 08:11:27;;;;;;;11.45;8.60;;;10.40;99.90;;;;;;5082753;28;20066;-65
2023/04/28 08:13:53;;;;;;;10.35;8.70;;;10.60;99.90;;;;;;5092306;28;20094;-65
2023/04/28 08:16:21;;;;;;;10.52;8.80;;;10.70;99.90;;;;;;5091622;28;20039;-65
2023/04/28 08:18:47;;;;;;;9.88;8.27;;;10.80;99.90;;;;;;5075788;28;20054;-64
2023/04/28 08:21:13;;;;;;;11.15;8.55;;;10.80;99.90;;;;;;5109578;28;20451;-65
2023/04/28 08:23:40;;;;;;;10.07;8.60;;;10.90;99.90;;;;;;5092731;28;20107;-65
2023/04/28 08:26:06;;;;;;;13.88;9.20;;;10.90;99.90;;;;;;5092392;28;20114;-65
2023/04/28 08:28:33;;;;;;;11.88;8.20;;;11.00;99.90;;;;;;5092312;28;20082;-65
2023/04/28 08:31:00;;;;;;;10.85;8.63;;;11.10;99.90;;;;;;5092057;28;20270;-65
2023/04/28 08:33:26;;;;;;;16.15;9.32;;;11.20;99.90;;;;;;5110057;28;20124;-65
2023/04/28 08:35:54;;;;;;;11.13;8.02;;;11.20;99.90;;;;;;5091231;28;20050;-65
2023/04/28 08:38:22;;;;;;;11.40;8.73;;;11.30;99.90;;;;;;5113550;27;20055;-64
2023/04/28 08:40:49;;;;;;;11.55;7.80;;;11.40;99.90;;;;;;5095181;28;20079;-66
2023/04/28 08:43:15;;;;;;;9.23;7.95;;;11.50;99.90;;;;;;5092276;28;20104;-65
2023/04/28 08:45:44;;;;;;;12.35;8.20;;;11.70;99.90;;;;;;5091604;28;20537;-65
2023/04/28 08:48:21;;;;;;;9.98;8.48;;;11.70;99.90;;;;;;5091370;28;20486;-65
2023/04/28 08:50:52;;;;;;;9.60;7.75;;;11.80;99.90;;;;;;5091904;28;20052;-66
2023/04/28 08:53:25;;;;;;;12.18;8.07;;;11.70;99.90;;;;;;5091813;28;20040;-65
2023/04/28 08:55:55;;;;;;;12.60;9.38;;;11.70;99.90;;;;;;5094213;28;20190;-65
2023/04/28 08:58:26;;;;;;;10.57;9.50;;;11.70;99.90;;;;;;5096299;28;20378;-65
2023/04/28 09:00:53;;;;;;;9.77;8.20;;;11.70;99.90;;;;;;5097066;28;20127;-65
2023/04/28 09:03:20;;;;;;;13.55;8.35;;;11.70;99.90;;;;;;5096573;28;20081;-65
2023/04/28 09:05:46;;;;;;;10.75;8.10;;;11.80;99.90;;;;;;5095950;28;20151;-64
2023/04/28 09:08:13;;;;;;;13.43;7.97;;;11.80;99.90;;;;;;5096860;28;20054;-66
2023/04/28 09:10:39;;;;;;;11.90;7.90;;;11.80;99.90;;;;;;5097182;28;20065;-66
2023/04/28 09:13:06;;;;;;;12.68;8.75;;;11.80;99.90;;;;;;5096131;28;20435;-66
2023/04/28 09:15:39;;;;;;;12.48;8.82;;;11.90;99.90;;;;;;5095768;28;20063;-64
2023/04/28 09:18:07;;;;;;;12.55;8.20;;;12.00;99.90;;;;;;5096785;28;20525;-66
2023/04/28 09:20:34;;;;;;;12.63;8.13;;;12.00;99.90;;;;;;5096176;28;20075;-65
2023/04/28 09:23:13;;;;;;;11.80;8.68;;;12.20;99.90;;;;;;5114827;28;20079;-65
2023/04/28 09:25:39;;;;;;;10.68;7.95;;;12.40;99.90;;;;;;5096145;28;20052;-65
2023/04/28 09:28:21;;;;;;;12.55;8.55;;;12.50;99.90;;;;;;5079516;28;20062;-65
2023/04/28 09:30:48;;;;;;;12.52;8.98;;;12.70;99.90;;;;;;5079551;28;20079;-66
2023/04/28 09:33:15;;;;;;;11.18;8.45;;;12.80;99.90;;;;;;5114689;28;20451;-65
2023/04/28 09:35:45;;;;;;;11.25;8.65;;;13.00;99.90;;;;;;5103653;27;20047;-65
2023/04/28 09:38:21;;;;;;;11.57;8.07;;;13.20;99.90;;;;;;5134852;27;20082;-66
2023/04/28 09:40:50;;;;;;;10.93;7.95;;;13.40;99.90;;;;;;5116570;27;20054;-65
2023/04/28 09:43:27;;;;;;;9.68;7.47;;;13.60;99.90;;;;;;5116500;27;20467;-65
2023/04/28 09:45:54;;;;;;;9.20;7.07;;;13.90;99.90;;;;;;5105342;28;20070;-65
2023/04/28 09:48:47;;;;;;;10.10;8.07;;;14.10;99.90;;;;;;5095420;28;20047;-65
2023/04/28 09:51:19;;;;;;;12.23;8.25;;;14.30;99.90;;;;;;5091353;28;20082;-65
2023/04/28 09:53:46;;;;;;;10.38;8.20;;;14.40;99.90;;;;;;5095342;28;20083;-67
2023/04/28 09:56:12;;;;;;;10.75;8.82;;;14.50;99.90;;;;;;5107616;27;20047;-66
2023/04/28 09:58:40;;;;;;;11.95;8.73;;;14.70;99.90;;;;;;5115682;27;20439;-66
2023/04/28 10:01:10;;;;;;;12.50;8.25;;;14.80;99.90;;;;;;5116254;27;20047;-65
2023/04/28 10:03:37;;;;;;;11.80;8.50;;;14.90;99.90;;;;;;5112360;27;20079;-65
2023/04/28 10:06:04;;;;;;;11.85;7.80;;;14.90;99.90;;;;;;5101730;28;20086;-65
2023/04/28 10:08:31;;;;;;;11.73;8.23;;;15.00;99.90;;;;;;5112127;28;20051;-66
2023/04/28 10:10:58;;;;;;;11.88;8.60;;;15.10;99.90;;;;;;5089902;28;20471;-66
2023/04/28 10:13:24;;;;;;;11.10;8.73;;;15.10;99.90;;;;;;5094589;28;20047;-65
2023/04/28 10:15:54;;;;;;;9.38;7.43;;;15.10;99.90;;;;;;5103617;27;20125;-65
2023/04/28 10:18:24;;;;;;;9.10;8.05;;;15.00;99.90;;;;;;5115334;27;20174;-66
2023/04/28 10:20:59;;;;;;;10.90;8.02;;;14.70;99.90;;;;;;5115406;27;20452;-66
2023/04/28 10:23:58;;;;;;;10.35;7.80;;;14.60;99.90;;;;;;5115053;27;20054;-65
2023/04/28 10:27:00;;;;;;;9.80;8.50;;;14.60;99.90;;;;;;5100498;28;20082;-65
2023/04/28 10:29:27;;;;;;;8.35;7.47;;;14.70;99.90;;;;;;5078171;28;20059;-65
2023/04/28 10:32:17;;;;;;;10.18;8.10;;;14.70;99.90;;;;;;5078043;28;20048;-65
2023/04/28 10:34:44;;;;;;;9.98;8.20;;;14.80;99.90;;;;;;5112376;28;20059;-65
2023/04/28 10:37:10;;;;;;;8.65;7.85;;;15.00;99.90;;;;;;5093971;28;20071;-66
2023/04/28 10:39:37;;;;;;;10.07;8.10;;;14.90;99.90;;;;;;5094861;28;20086;-65
2023/04/28 10:42:03;;;;;;;9.45;8.45;;;14.90;99.90;;;;;;5112833;28;20384;-66
2023/04/28 10:44:30;;;;;;;9.70;8.48;;;14.80;99.90;;;;;;5093973;28;20051;-66
2023/04/28 10:47:09;;;;;;;9.52;8.30;;;14.80;99.90;;;;;;5094595;28;20130;-66
2023/04/28 10:50:06;;;;;;;9.18;7.55;;;14.80;99.90;;;;;;5094535;28;20079;-66
2023/04/28 10:52:32;;;;;;;10.00;7.95;;;14.70;99.90;;;;;;5112555;28;20432;-65
2023/04/28 10:55:29;;;;;;;11.07;7.93;;;14.80;99.90;;;;;;5111978;28;20071;-66
2023/04/28 10:58:14;;;;;;;11.73;8.52;;;14.90;99.90;;;;;;5094552;28;20051;-66
2023/04/28 11:00:52;;;;;;;11.98;8.77;;;14.80;99.90;;;;;;5094831;28;20061;-66
2023/04/28 11:03:47;;;;;;;12.40;9.70;;;14.80;99.90;;;;;;5094733;28;20079;-66
2023/04/28 11:06:27;;;;;;;12.65;10.23;;;14.70;99.90;;;;;;5093959;28;20071;-66
2023/04/28 11:08:56;;;;;;;12.00;9.85;;;14.60;99.90;;;;;;5112249;28;20051;-65
2023/04/28 11:11:31;;;;;;;14.13;10.43;;;14.60;99.90;;;;;;5094213;28;20047;-66
2023/04/28 11:14:17;;;;;;;14.57;10.90;;;14.50;99.90;;;;;;5093882;28;20083;-66
2023/04/28 11:17:04;;;;;;;16.70;12.50;;;14.50;99.90;;;;;;5111869;28;20356;-66
2023/04/28 11:19:33;;;;;;;15.57;12.23;;;14.50;99.90;;;;;;5111536;28;20134;-66
2023/04/28 11:22:02;;;;;;;23.70;14.60;;;14.40;99.90;;;;;;5111702;28;20055;-65
2023/04/28 11:24:29;;;;;;;20.17;16.60;;;14.40;99.90;;;;;;5110392;28;20131;-66
2023/04/28 11:26:57;;;;;;;24.52;18.25;;;14.30;99.90;;;;;;5111150;28;20155;-66
2023/04/28 11:29:32;;;;;;;21.85;17.50;;;14.30;99.90;;;;;;5093723;28;20101;-65
2023/04/28 11:31:59;;;;;;;23.23;18.30;;;14.20;99.90;;;;;;5111893;28;20079;-66
2023/04/28 11:34:25;;;;;;;26.13;20.30;;;14.10;99.90;;;;;;5110853;28;20357;-66
2023/04/28 11:36:51;;;;;;;26.23;20.77;;;14.20;99.90;;;;;;5106562;28;20481;-65
2023/04/28 11:39:27;;;;;;;25.27;21.40;;;14.00;99.90;;;;;;5110132;28;20051;-66
2023/04/28 11:41:54;;;;;;;27.70;22.17;;;14.00;99.90;;;;;;5110502;28;20111;-66
2023/04/28 11:44:26;;;;;;;30.33;22.23;;;14.00;99.90;;;;;;5109628;28;20402;-66
2023/04/28 11:46:59;;;;;;;;;;;13.90;99.90;;;;;;5093735;28;20489;-66
2023/04/28 11:49:29;;;;;;;24.23;19.05;;;13.90;99.90;;;;;;5093031;28;20363;-65
2023/04/28 11:52:07;;;;;;;27.05;21.15;;;13.90;99.90;;;;;;5093334;28;20047;-66
2023/04/28 11:54:34;;;;;;;26.83;20.83;;;13.80;99.90;;;;;;5111377;28;20140;-66
2023/04/28 11:57:03;;;;;;;28.13;21.52;;;13.80;99.90;;;;;;5111266;28;20126;-66
2023/04/28 11:59:34;;;;;;;26.63;20.50;;;13.80;99.90;;;;;;5093147;28;20075;-66
2023/04/28 12:02:03;;;;;;;26.60;21.92;;;13.70;99.90;;;;;;5111496;28;20170;-65
2023/04/28 12:04:36;;;;;;;28.10;23.33;;;13.70;99.90;;;;;;5110705;28;20390;-64
2023/04/28 12:07:03;;;;;;;30.33;22.75;;;13.70;99.90;;;;;;5110971;28;20090;-64
2023/04/28 12:09:30;;;;;;;26.67;23.75;;;13.60;99.90;;;;;;5110961;28;20051;-64
2023/04/28 12:12:01;;;;;;;24.63;21.27;;;13.60;99.90;;;;;;5110722;28;20377;-65
2023/04/28 12:14:29;;;;;;;30.17;22.13;;;13.60;99.90;;;;;;5092223;28;20147;-64
2023/04/28 12:16:55;;;;;;;28.33;24.30;;;13.60;99.90;;;;;;5110459;28;20420;-64
2023/04/28 12:19:22;;;;;;;28.92;22.85;;;13.60;99.90;;;;;;5110764;28;20083;-64
2023/04/28 12:22:05;;;;;;;28.77;23.33;;;13.50;99.90;;;;;;5111240;28;20059;-65
2023/04/28 12:24:31;;;;;;;26.92;22.58;;;13.60;99.90;;;;;;5110791;28;20048;-65
2023/04/28 12:27:15;;;;;;;31.92;25.95;;;13.60;99.90;;;;;;5110906;28;20143;-65
2023/04/28 12:29:42;;;;;;;;;;;13.50;99.90;;;;;;5110807;28;20047;-66
2023/04/28 12:32:10;;;;;;;28.25;25.05;;;13.60;99.90;;;;;;5111052;28;19974;-65
2023/04/28 12:34:38;;;;;;;32.10;26.15;;;13.50;99.90;;;;;;5110184;28;20483;-65
2023/04/28 12:37:05;;;;;;;30.42;25.80;;;13.60;99.90;;;;;;5109840;28;20237;-64
2023/04/28 12:39:33;;;;;;;30.42;24.65;;;13.50;99.90;;;;;;5110725;28;20059;-63
2023/04/28 12:42:01;;;;;;;30.50;24.08;;;13.60;99.90;;;;;;5110831;28;20079;-64
2023/04/28 12:44:34;;;;;;;28.17;23.65;;;13.60;99.90;;;;;;5109940;28;20467;-64
2023/04/28 12:47:06;;;;;;;29.38;23.38;;;13.60;99.90;;;;;;5110398;28;20047;-64